Terminal Aerodrome Forecast
Issued by NWS Springfield, MO

Home | Current Version | Previous Version | Text Only | Print | Product List | Glossary On
Versions: 1 2 3 4 5 6 7 8 9 10 11 12 13 14 15 16 17 18 19 20 21 22 23 24
158
FTUS43 KSGF 252320
TAFSGF
TAF
KSGF 252320Z 2600/2624 19014KT P6SM SKC
     FM260500 16012KT P6SM VCTS BKN050CB
     FM260700 17012KT P6SM SHRA OVC015
      TEMPO 2607/2610 4SM TSRA OVC007CB
     FM261000 18008KT P6SM SHRA VCTS SCT008 OVC045CB
     FM261400 30008KT 6SM SHRA VCTS OVC008CB
     FM261900 34010KT 3SM SHRA VCTS OVC003CB
     FM262100 34010KT 4SM SHRA OVC003=

USA.gov is the U.S. government's official web portal to all federal, state and local government web resources and services.